Time;durP1;ratioP1;P1;durP2;ratioP2;P2;SDS_P1;SDS_P2;PMS_P1;PMS_P2;Temp;Humidity;BMP_temperature;BMP_pressure;BME280_temperature;BME280_humidity;BME280_pressure;Samples;Min_cycle;Max_cycle;Signal;HPM_P1;HPM_P2
2022/06/01 00:00:08;;;;;;;;;;;;;;;25.74;38.29;94176.25;4895995;29;7139;-59
2022/06/01 00:02:44;;;;;;;;;;;;;;;25.76;37.81;94170.97;4908566;29;9337;-59
2022/06/01 00:05:26;;;;;;;;;;;;;;;25.74;38.42;94173.50;4902404;29;7230;-59
2022/06/01 00:08:05;;;;;;;;;;;;;;;25.74;38.39;94172.75;4898564;29;7057;-59
2022/06/01 00:10:33;;;;;;;;;;;;;;;25.75;38.11;94179.78;4911741;29;8781;-59
2022/06/01 00:13:00;;;;;;;;;;;;;;;25.73;37.59;94168.53;4889579;29;7431;-59
2022/06/01 00:15:27;;;;;;;;;;;;;;;25.73;38.30;94172.00;4888676;29;9041;-59
2022/06/01 00:17:58;;;;;;;;;;;;;;;25.74;37.64;94173.50;4905959;29;7007;-60
2022/06/01 00:20:40;;;;;;;;;;;;;;;25.72;37.73;94167.03;4895365;29;9111;-60
2022/06/01 00:23:20;;;;;;;;;;;;;;;25.75;38.04;94166.72;4928576;29;6888;-59
2022/06/01 00:25:46;;;;;;;;;;;;;;;25.74;38.16;94161.72;4923641;29;7389;-59
2022/06/01 00:28:46;;;;;;;;;;;;;;;25.75;38.18;94163.25;4899838;29;9139;-59
2022/06/01 00:31:25;;;;;;;;;;;;;;;25.74;38.25;94162.50;4899777;29;7146;-59
2022/06/01 00:34:03;;;;;;;;;;;;;;;25.74;37.71;94159.75;4925597;28;9141;-59
2022/06/01 00:36:32;;;;;;;;;;;;;;;25.73;38.08;94160.25;4972592;28;9399;-59
2022/06/01 00:38:59;;;;;;;;;;;;;;;25.71;38.10;94163.50;4963636;28;7112;-59
2022/06/01 00:41:25;;;;;;;;;;;;;;;25.70;37.64;94161.28;4958372;28;9092;-59
2022/06/01 00:43:55;;;;;;;;;;;;;;;25.71;37.67;94168.31;4951494;28;7201;-60
2022/06/01 00:46:22;;;;;;;;;;;;;;;25.70;38.29;94162.03;4964862;28;8937;-59
2022/06/01 00:48:53;;;;;;;;;;;;;;;25.72;38.01;94167.03;4952031;28;9145;-59
2022/06/01 00:51:25;;;;;;;;;;;;;;;25.70;37.61;94159.28;4942747;28;9090;-59
2022/06/01 00:53:55;;;;;;;;;;;;;;;25.69;37.68;94157.78;4965866;28;8756;-59
2022/06/01 00:56:36;;;;;;;;;;;;;;;25.68;37.54;94155.53;4963240;28;8735;-59
2022/06/01 00:59:10;;;;;;;;;;;;;;;25.67;38.18;94152.03;4955811;28;7442;-59
2022/06/01 01:01:52;;;;;;;;;;;;;;;25.69;37.80;94155.03;4972231;28;9062;-59
2022/06/01 01:04:33;;;;;;;;;;;;;;;25.68;37.63;94153.53;4950157;28;7015;-59
2022/06/01 01:07:06;;;;;;;;;;;;;;;25.69;37.88;94155.03;4976670;28;7009;-59
2022/06/01 01:09:37;;;;;;;;;;;;;;;25.70;37.11;94142.75;4996064;28;8756;-59
2022/06/01 01:12:20;;;;;;;;;;;;;;;25.71;37.36;94141.47;5004162;28;6988;-59
2022/06/01 01:15:05;;;;;;;;;;;;;;;25.68;38.20;94134.25;5004625;28;7309;-59
2022/06/01 01:17:35;;;;;;;;;;;;;;;25.68;37.04;94131.50;4980644;28;9356;-60
2022/06/01 01:20:02;;;;;;;;;;;;;;;25.68;37.69;94137.03;4975308;28;6903;-60
2022/06/01 01:23:05;;;;;;;;;;;;;;;25.66;37.83;94123.03;5011931;28;9036;-60
2022/06/01 01:25:40;;;;;;;;;;;;;;;25.66;37.80;94130.53;4984621;28;7206;-59
2022/06/01 01:28:10;;;;;;;;;;;;;;;25.66;37.20;94130.53;4994063;28;6856;-59
2022/06/01 01:30:36;;;;;;;;;;;;;;;25.65;37.46;94135.28;4982389;28;7267;-59
2022/06/01 01:33:12;;;;;;;;;;;;;;;25.65;38.14;94142.81;5003738;28;8859;-59
2022/06/01 01:35:39;;;;;;;;;;;;;;;25.62;37.27;94141.81;4990119;28;6983;-59
2022/06/01 01:38:35;;;;;;;;;;;;;;;25.63;37.31;94134.31;4979676;28;8726;-59
2022/06/01 01:41:08;;;;;;;;;;;;;;;25.63;37.47;94146.06;4998110;28;7374;-59
2022/06/01 01:43:41;;;;;;;;;;;;;;;25.61;37.44;94137.59;5002691;28;9065;-59
2022/06/01 01:46:07;;;;;;;;;;;;;;;25.61;37.26;94140.34;4983631;28;8850;-60
2022/06/01 01:48:37;;;;;;;;;;;;;;;25.62;37.85;94141.09;4986109;28;7288;-59
2022/06/01 01:51:32;;;;;;;;;;;;;;;25.62;38.16;94143.84;5010617;28;7054;-59
2022/06/01 01:54:23;;;;;;;;;;;;;;;25.62;37.38;94147.31;4993257;28;8214;-59
2022/06/01 01:56:59;;;;;;;;;;;;;;;25.61;37.43;94151.34;4995752;28;7083;-59
2022/06/01 02:00:14;;;;;;;;;;;;;;;25.61;37.14;94147.84;4977681;28;6998;-59
2022/06/01 02:03:13;;;;;;;;;;;;;;;25.60;37.71;94136.09;4924416;29;7620;-59
2022/06/01 02:06:33;;;;;;;;;;;;;;;25.58;37.04;94138.59;4896455;29;6935;-59
2022/06/01 02:09:13;;;;;;;;;;;;;;;25.57;37.93;94139.88;4836670;29;8969;-60
2022/06/01 02:15:02;;;;;;;;;;;;;;;25.55;37.71;94125.88;4850415;29;8729;-59
2022/06/01 02:17:49;;;;;;;;;;;;;;;25.56;37.59;94134.88;4857409;29;7005;-59
2022/06/01 02:20:48;;;;;;;;;;;;;;;25.54;37.78;94129.91;4857188;29;9092;-59
2022/06/01 02:23:31;;;;;;;;;;;;;;;25.55;37.12;94127.91;4840214;29;8991;-59
2022/06/01 02:26:01;;;;;;;;;;;;;;;25.54;37.87;94121.63;4846674;29;7326;-59
2022/06/01 02:28:44;;;;;;;;;;;;;;;25.54;37.33;94127.13;4840593;29;7241;-60
2022/06/01 02:31:21;;;;;;;;;;;;;;;25.54;37.78;94131.91;4818254;29;8015;-59
2022/06/01 02:33:59;;;;;;;;;;;;;;;25.52;37.13;94134.41;4803649;29;7244;-60
2022/06/01 02:36:28;;;;;;;;;;;;;;;25.51;37.83;94133.69;4802252;29;8387;-59
2022/06/01 02:39:09;;;;;;;;;;;;;;;25.50;37.30;94123.94;4873091;29;9108;-59
2022/06/01 02:44:20;;;;;;;;;;;;;;;25.50;37.86;94121.19;4957688;28;7745;-60
2022/06/01 02:46:46;;;;;;;;;;;;;;;25.50;38.13;94126.69;4955211;28;7116;-60
2022/06/01 02:49:25;;;;;;;;;;;;;;;25.51;38.47;94121.94;4980229;28;7363;-59
2022/06/01 02:52:02;;;;;;;;;;;;;;;25.51;37.26;94122.69;4974655;28;7057;-59
2022/06/01 02:54:28;;;;;;;;;;;;;;;25.51;37.71;94111.66;4982343;28;7952;-60
2022/06/01 02:57:03;;;;;;;;;;;;;;;25.51;38.05;94119.94;4966135;28;7525;-59
2022/06/01 02:59:36;;;;;;;;;;;;;;;25.51;37.82;94119.19;4975183;28;9156;-59
2022/06/01 03:02:09;;;;;;;;;;;;;;;25.51;37.80;94121.94;4986983;28;7284;-59
2022/06/01 03:04:47;;;;;;;;;;;;;;;25.50;37.28;94125.94;4989333;28;8649;-60
2022/06/01 03:07:19;;;;;;;;;;;;;;;25.50;37.32;94123.19;4992485;28;7042;-59
2022/06/01 03:09:47;;;;;;;;;;;;;;;25.49;37.26;94125.19;5007967;28;9056;-60
2022/06/01 03:12:43;;;;;;;;;;;;;;;25.48;37.18;94126.47;4989599;28;7517;-59
2022/06/01 03:15:21;;;;;;;;;;;;;;;25.49;37.29;94127.22;4980808;28;7278;-59
2022/06/01 03:17:48;;;;;;;;;;;;;;;25.47;37.49;94124.22;5000434;28;8723;-59
2022/06/01 03:20:18;;;;;;;;;;;;;;;25.47;37.35;94121.47;4985568;28;6964;-59
2022/06/01 03:22:45;;;;;;;;;;;;;;;25.47;37.17;94126.97;4999527;28;8889;-59
2022/06/01 03:25:18;;;;;;;;;;;;;;;25.48;37.48;94122.94;4987513;28;7522;-60
2022/06/01 03:27:44;;;;;;;;;;;;;;;25.47;37.96;94124.94;4984723;28;9081;-60
2022/06/01 03:30:17;;;;;;;;;;;;;;;25.46;37.75;94128.22;4973279;28;9294;-59
2022/06/01 03:32:44;;;;;;;;;;;;;;;25.45;37.65;94127.47;4999210;28;7605;-59
2022/06/01 03:35:23;;;;;;;;;;;;;;;25.46;37.62;94125.47;4971353;28;9406;-59
2022/06/01 03:38:05;;;;;;;;;;;;;;;25.43;37.52;94122.50;4992457;28;9566;-59
2022/06/01 03:40:33;;;;;;;;;;;;;;;25.44;37.96;94120.50;4982429;28;7214;-59
2022/06/01 03:43:00;;;;;;;;;;;;;;;25.43;37.71;94116.25;4981746;28;9140;-59
2022/06/01 03:48:15;;;;;;;;;;;;;;;25.40;37.63;94120.72;4988499;28;9513;-60
2022/06/01 03:50:45;;;;;;;;;;;;;;;25.45;37.12;94132.25;5012179;28;7223;-59
2022/06/01 03:53:20;;;;;;;;;;;;;;;25.43;37.35;94135.50;4983027;28;6982;-59
2022/06/01 03:55:47;;;;;;;;;;;;;;;25.43;37.68;94139.00;4988356;28;9176;-59
2022/06/01 03:58:17;;;;;;;;;;;;;;;25.42;37.60;94131.28;4980544;28;7222;-59
2022/06/01 04:00:54;;;;;;;;;;;;;;;25.40;37.30;94137.25;4986199;28;9084;-59
2022/06/01 04:03:40;;;;;;;;;;;;;;;25.42;37.56;94131.28;5001006;28;7115;-59
2022/06/01 04:06:06;;;;;;;;;;;;;;;25.41;37.32;94135.25;4986303;28;7006;-59
2022/06/01 04:08:39;;;;;;;;;;;;;;;25.40;37.31;94136.53;4983154;28;7167;-60
2022/06/01 04:11:05;;;;;;;;;;;;;;;25.38;36.97;94148.03;4981160;28;7251;-59
2022/06/01 04:13:33;;;;;;;;;;;;;;;25.39;37.47;94148.78;4969207;28;7039;-59
2022/06/01 04:16:01;;;;;;;;;;;;;;;25.40;37.32;94155.81;5009824;28;7188;-59
2022/06/01 04:18:33;;;;;;;;;;;;;;;25.39;37.63;94154.28;4995264;28;7409;-59
2022/06/01 04:21:06;;;;;;;;;;;;;;;25.42;37.76;94154.03;4999143;28;9088;-59
2022/06/01 04:23:34;;;;;;;;;;;;;;;25.41;37.39;94154.53;4990279;28;9097;-59
2022/06/01 04:26:00;;;;;;;;;;;;;;;25.41;37.14;94147.03;4993553;28;7163;-59
2022/06/01 04:28:42;;;;;;;;;;;;;;;25.42;37.27;94147.81;4990443;28;7060;-59
2022/06/01 04:31:29;;;;;;;;;;;;;;;25.39;37.55;94138.53;4986764;28;9080;-60
2022/06/01 04:34:00;;;;;;;;;;;;;;;25.40;36.99;94147.53;4987565;28;7268;-59
2022/06/01 04:36:30;;;;;;;;;;;;;;;25.37;37.24;94145.81;4996329;28;8762;-60
2022/06/01 04:39:14;;;;;;;;;;;;;;;25.35;37.86;94153.84;4990496;28;7479;-59
2022/06/01 04:41:40;;;;;;;;;;;;;;;25.35;38.06;94148.34;4988489;28;7489;-59
2022/06/01 04:44:06;;;;;;;;;;;;;;;25.36;38.33;94156.06;4974974;28;7506;-60
2022/06/01 04:46:32;;;;;;;;;;;;;;;25.36;37.60;94160.81;4984644;28;7468;-59
2022/06/01 04:49:07;;;;;;;;;;;;;;;25.35;37.80;94142.81;4990061;28;9100;-59
2022/06/01 04:51:38;;;;;;;;;;;;;;;25.34;37.95;94153.09;4989362;28;7626;-60
2022/06/01 04:54:10;;;;;;;;;;;;;;;25.34;37.68;94146.81;5000131;28;7708;-60
2022/06/01 04:56:47;;;;;;;;;;;;;;;25.34;37.37;94163.34;4993861;28;9386;-59
2022/06/01 04:59:19;;;;;;;;;;;;;;;25.31;38.01;94156.13;4990276;28;7241;-59
2022/06/01 05:01:55;;;;;;;;;;;;;;;25.26;37.68;94152.16;5004004;28;9489;-59
2022/06/01 05:04:32;;;;;;;;;;;;;;;25.25;38.41;94158.91;4982593;28;7229;-60
2022/06/01 05:07:00;;;;;;;;;;;;;;;25.22;38.28;94146.19;5012372;28;8761;-59
2022/06/01 05:09:27;;;;;;;;;;;;;;;25.22;38.59;94148.97;4999833;28;7422;-60
2022/06/01 05:11:55;;;;;;;;;;;;;;;25.22;38.75;94145.44;4998849;28;9114;-59
2022/06/01 05:14:20;;;;;;;;;;;;;;;25.21;38.37;94152.94;5015275;28;7415;-60
2022/06/01 05:16:47;;;;;;;;;;;;;;;25.21;38.30;94149.44;4988645;28;9083;-60
2022/06/01 05:19:12;;;;;;;;;;;;;;;25.23;38.46;94155.94;4988362;28;7253;-60
2022/06/01 05:21:38;;;;;;;;;;;;;;;25.21;38.17;94144.69;4988527;28;7005;-60
2022/06/01 05:24:21;;;;;;;;;;;;;;;25.22;38.70;94139.94;4984915;28;7259;-59
2022/06/01 05:26:57;;;;;;;;;;;;;;;25.23;38.30;94136.66;4992920;28;7581;-60
2022/06/01 05:29:24;;;;;;;;;;;;;;;25.23;38.93;94144.19;4978550;28;7237;-60
2022/06/01 05:31:58;;;;;;;;;;;;;;;25.23;38.45;94141.41;4984169;28;9013;-60
2022/06/01 05:34:26;;;;;;;;;;;;;;;25.24;39.01;94145.69;5011011;28;9030;-60
2022/06/01 05:36:53;;;;;;;;;;;;;;;25.26;38.68;94145.91;4993024;28;7000;-60
2022/06/01 05:39:35;;;;;;;;;;;;;;;25.26;39.07;94149.41;4990482;28;6979;-60
2022/06/01 05:42:04;;;;;;;;;;;;;;;25.26;38.09;94151.41;4980021;28;9592;-60
2022/06/01 05:44:31;;;;;;;;;;;;;;;25.29;38.00;94144.88;4985502;28;9100;-60
2022/06/01 05:47:06;;;;;;;;;;;;;;;25.28;38.31;94143.38;4995278;28;6991;-60
2022/06/01 05:49:40;;;;;;;;;;;;;;;25.25;38.38;94150.66;4991532;28;9335;-60
2022/06/01 05:52:20;;;;;;;;;;;;;;;25.29;38.83;94156.63;5009152;28;7200;-60
2022/06/01 05:54:53;;;;;;;;;;;;;;;25.28;38.57;94152.41;4996771;28;7969;-60
2022/06/01 05:57:54;;;;;;;;;;;;;;;25.27;38.44;94145.38;4992780;28;7289;-60
2022/06/01 06:00:20;;;;;;;;;;;;;;;25.27;38.07;94142.63;4988310;28;7351;-60
2022/06/01 06:02:55;;;;;;;;;;;;;;;25.29;38.63;94139.38;4981003;28;9095;-60
2022/06/01 06:08:23;;;;;;;;;;;;;;;25.31;38.16;94139.63;4985406;28;8633;-60
2022/06/01 06:10:49;;;;;;;;;;;;;;;25.30;38.22;94141.63;4984209;28;9030;-60
2022/06/01 06:13:40;;;;;;;;;;;;;;;25.31;38.07;94145.88;4969982;28;9123;-60
2022/06/01 06:16:37;;;;;;;;;;;;;;;25.30;37.79;94146.38;4989360;28;8760;-59
2022/06/01 06:19:05;;;;;;;;;;;;;;;25.26;38.42;94154.16;4895603;29;9245;-60
2022/06/01 06:21:32;;;;;;;;;;;;;;;25.26;38.02;94162.44;4898931;29;7226;-60
2022/06/01 06:24:11;;;;;;;;;;;;;;;25.26;38.32;94159.66;4915962;29;7063;-60
2022/06/01 06:26:42;;;;;;;;;;;;;;;25.26;38.82;94162.44;4911297;29;8788;-60
2022/06/01 06:29:24;;;;;;;;;;;;;;;25.28;38.98;94159.91;4901245;29;7206;-60
2022/06/01 06:32:04;;;;;;;;;;;;;;;25.28;39.27;94170.91;4922615;29;9140;-60
2022/06/01 06:34:49;;;;;;;;;;;;;;;25.24;39.26;94159.44;4912272;29;8733;-60
2022/06/01 06:37:15;;;;;;;;;;;;;;;25.27;39.21;94161.91;4928473;29;8766;-60
2022/06/01 06:39:41;;;;;;;;;;;;;;;25.27;39.48;94163.94;4932911;29;10357;-60
2022/06/01 06:42:07;;;;;;;;;;;;;;;25.26;39.62;94159.66;4914512;28;9016;-60
2022/06/01 06:44:36;;;;;;;;;;;;;;;25.23;40.67;94157.94;4933359;28;8994;-60
2022/06/01 06:47:27;;;;;;;;;;;;;;;25.21;40.43;94147.44;4922411;29;7260;-60
2022/06/01 06:50:09;;;;;;;;;;;;;;;25.23;40.12;94157.94;4909673;29;7234;-60
2022/06/01 06:52:38;;;;;;;;;;;;;;;25.24;39.70;94159.44;4920943;28;9463;-60
2022/06/01 06:55:19;;;;;;;;;;;;;;;25.24;40.11;94151.94;4946280;28;9204;-60
2022/06/01 06:57:52;;;;;;;;;;;;;;;25.24;39.75;94151.94;5006997;28;7248;-60
2022/06/01 07:00:20;;;;;;;;;;;;;;;25.22;40.08;94151.72;4985523;28;8773;-60
2022/06/01 07:02:56;;;;;;;;;;;;;;;25.25;40.16;94152.69;5012324;28;7270;-60
2022/06/01 07:08:22;;;;;;;;;;;;;;;25.25;40.12;94150.66;4986527;28;9131;-60
2022/06/01 07:11:03;;;;;;;;;;;;;;;25.27;39.80;94158.44;5019281;28;7239;-60
2022/06/01 07:13:33;;;;;;;;;;;;;;;25.27;40.27;94147.41;4988311;28;9161;-60
2022/06/01 07:16:22;;;;;;;;;;;;;;;25.27;40.35;94158.44;4990211;28;7345;-60
2022/06/01 07:19:02;;;;;;;;;;;;;;;25.28;40.19;94144.13;4993667;28;7213;-60
2022/06/01 07:21:30;;;;;;;;;;;;;;;25.26;40.90;94141.16;4992156;28;8704;-60
2022/06/01 07:23:59;;;;;;;;;;;;;;;25.23;41.18;94144.94;4991646;28;7210;-60
2022/06/01 07:26:35;;;;;;;;;;;;;;;25.21;40.80;94154.94;4980928;28;7012;-60
2022/06/01 07:29:07;;;;;;;;;;;;;;;25.19;40.32;94151.97;4979207;28;9316;-60
2022/06/01 07:31:43;;;;;;;;;;;;;;;25.21;40.70;94152.94;4999723;28;7286;-59
2022/06/01 07:34:18;;;;;;;;;;;;;;;25.22;39.86;94151.72;5006504;28;7613;-60
2022/06/01 07:43:05;;;;;;;;;;;;;;;25.21;40.11;94147.44;4998830;28;7258;-60
2022/06/01 07:43:10;;;;;;;;;;;;;;;25.25;40.40;94147.91;4987796;28;7247;-60
2022/06/01 07:45:39;;;;;;;;;;;;;;;25.27;40.90;94153.66;4986116;28;7287;-60
2022/06/01 07:48:09;;;;;;;;;;;;;;;25.27;39.72;94152.91;4974497;28;9632;-60
2022/06/01 07:50:36;;;;;;;;;;;;;;;25.34;40.00;94144.06;4976945;28;7387;-60
2022/06/01 07:53:22;;;;;;;;;;;;;;;25.35;40.05;94142.81;4991052;28;8947;-60
2022/06/01 07:55:50;;;;;;;;;;;;;;;25.37;39.67;94137.56;4980167;28;10036;-60
2022/06/01 07:58:17;;;;;;;;;;;;;;;25.37;39.88;94132.78;4982856;28;7336;-60
2022/06/01 08:00:44;;;;;;;;;;;;;;;25.38;39.44;94141.81;4991327;28;8883;-59
2022/06/01 08:03:25;;;;;;;;;;;;;;;25.35;45.09;94137.31;4986888;28;10148;-60
2022/06/01 08:06:12;;;;;;;;;;;;;;;25.39;40.27;94137.78;4977956;28;7344;-60
2022/06/01 08:08:48;;;;;;;;;;;;;;;25.41;40.63;94141.50;4985770;28;7324;-60
2022/06/01 08:11:15;;;;;;;;;;;;;;;25.42;39.93;94139.53;4986012;28;7155;-61
2022/06/01 08:13:43;;;;;;;;;;;;;;;25.43;40.54;94138.25;4986924;28;9030;-60
2022/06/01 08:16:20;;;;;;;;;;;;;;;25.45;39.94;94140.53;4998950;28;7041;-60
2022/06/01 08:19:14;;;;;;;;;;;;;;;25.43;40.06;94149.28;4987992;28;9106;-60
2022/06/01 08:21:42;;;;;;;;;;;;;;;25.45;40.74;94146.75;4961391;28;8971;-60
2022/06/01 08:24:10;;;;;;;;;;;;;;;25.46;39.81;94153.00;4934058;29;9771;-60
2022/06/01 08:26:36;;;;;;;;;;;;;;;25.48;40.03;94154.00;4928010;29;9027;-60
2022/06/01 08:29:05;;;;;;;;;;;;;;;25.49;40.17;94155.47;4954748;28;7248;-60
2022/06/01 08:31:33;;;;;;;;;;;;;;;25.51;40.29;94149.47;4944774;28;9053;-60
2022/06/01 08:34:03;;;;;;;;;;;;;;;25.49;40.23;94152.00;4947647;28;7242;-60
2022/06/01 08:36:29;;;;;;;;;;;;;;;25.47;40.63;94155.25;4931580;28;7080;-60
2022/06/01 08:38:55;;;;;;;;;;;;;;;25.45;40.48;94163.28;4949431;28;7168;-60
2022/06/01 08:41:28;;;;;;;;;;;;;;;25.44;40.41;94156.28;4933045;28;9136;-60
2022/06/01 08:44:03;;;;;;;;;;;;;;;25.47;40.28;94152.50;4955164;28;9197;-60
2022/06/01 08:46:34;;;;;;;;;;;;;;;25.50;40.73;94161.72;4949767;28;7446;-60
2022/06/01 08:49:33;;;;;;;;;;;;;;;25.50;40.14;94164.47;4942963;28;7264;-60
2022/06/01 08:52:02;;;;;;;;;;;;;;;25.48;39.92;94156.75;4917010;29;8750;-59
2022/06/01 08:54:37;;;;;;;;;;;;;;;25.51;40.66;94161.22;4895696;29;7272;-60
2022/06/01 08:57:31;;;;;;;;;;;;;;;25.55;40.34;94174.72;4896907;29;7241;-60
2022/06/01 09:00:09;;;;;;;;;;;;;;;25.52;40.07;94170.22;4926945;28;7417;-60
2022/06/01 09:02:47;;;;;;;;;;;;;;;25.55;40.67;94172.72;4933341;28;9037;-60
2022/06/01 09:05:57;;;;;;;;;;;;;;;25.55;40.23;94167.19;4956825;28;6953;-60
2022/06/01 09:09:09;;;;;;;;;;;;;;;25.55;40.54;94169.94;4937618;28;7276;-60
2022/06/01 09:11:39;;;;;;;;;;;;;;;25.57;40.74;94170.19;4948639;28;9088;-60
2022/06/01 09:14:10;;;;;;;;;;;;;;;25.58;40.28;94171.66;4927566;28;7304;-60
2022/06/01 09:16:47;;;;;;;;;;;;;;;25.58;40.06;94168.91;4947173;28;9091;-60
2022/06/01 09:19:21;;;;;;;;;;;;;;;25.60;39.85;94168.41;4959970;28;7148;-60
2022/06/01 09:24:49;;;;;;;;;;;;;;;25.59;40.58;94162.16;4950819;28;9333;-60
2022/06/01 09:27:43;;;;;;;;;;;;;;;25.62;39.57;94163.13;4948760;28;7019;-59
2022/06/01 09:30:25;;;;;;;;;;;;;;;25.63;40.08;94159.84;5000103;28;9188;-60
2022/06/01 09:33:29;;;;;;;;;;;;;;;25.62;40.37;94155.59;5016922;28;7007;-60
2022/06/01 09:36:22;;;;;;;;;;;;;;;25.61;40.54;94158.88;4991205;28;7335;-60
2022/06/01 09:39:00;;;;;;;;;;;;;;;25.58;40.16;94162.66;4987769;28;7580;-60
2022/06/01 09:41:38;;;;;;;;;;;;;;;25.55;41.15;94158.94;4977906;28;7544;-60
2022/06/01 09:44:08;;;;;;;;;;;;;;;25.58;40.76;94170.94;4991734;28;9429;-60
2022/06/01 09:46:39;;;;;;;;;;;;;;;25.56;40.65;94168.69;5004359;28;7208;-60
2022/06/01 09:49:24;;;;;;;;;;;;;;;25.57;40.70;94170.19;5008955;28;9074;-60
2022/06/01 09:52:12;;;;;;;;;;;;;;;25.57;41.12;94174.94;4999920;28;7198;-60
2022/06/01 09:54:51;;;;;;;;;;;;;;;25.59;41.19;94172.41;4979882;28;6985;-60
2022/06/01 09:57:32;;;;;;;;;;;;;;;25.62;39.94;94177.63;5010578;28;7189;-60
2022/06/01 10:06:06;;;;;;;;;;;;;;;25.66;40.40;94177.34;4979451;28;7298;-60
2022/06/01 10:08:42;;;;;;;;;;;;;;;25.66;39.91;94183.63;4986758;28;7164;-60
2022/06/01 10:11:44;;;;;;;;;;;;;;;25.66;40.49;94182.88;5005614;28;9167;-60
2022/06/01 10:14:15;;;;;;;;;;;;;;;25.59;40.03;94189.69;4981501;28;7279;-59
2022/06/01 10:16:50;;;;;;;;;;;;;;;25.59;40.14;94189.69;4974065;28;9080;-59
2022/06/01 10:19:28;;;;;;;;;;;;;;;25.61;40.04;94184.41;4965430;28;7247;-60
2022/06/01 10:22:24;;;;;;;;;;;;;;;25.64;40.53;94194.41;4980956;28;8857;-60
2022/06/01 10:25:21;;;;;;;;;;;;;;;25.64;40.14;94179.88;4975621;28;7311;-59
2022/06/01 10:28:14;;;;;;;;;;;;;;;25.64;40.84;94183.38;4948109;28;7498;-59
2022/06/01 10:31:00;;;;;;;;;;;;;;;25.62;40.41;94188.63;4946443;28;8528;-59
2022/06/01 10:33:49;;;;;;;;;;;;;;;25.64;40.61;94190.91;4947935;28;8225;-60
2022/06/01 10:36:21;;;;;;;;;;;;;;;25.65;40.08;94184.88;4948583;28;7014;-60
2022/06/01 10:39:01;;;;;;;;;;;;;;;25.66;40.84;94186.38;4930217;28;7072;-60
2022/06/01 10:41:45;;;;;;;;;;;;;;;25.66;40.86;94189.13;4929089;28;7337;-59
2022/06/01 10:44:24;;;;;;;;;;;;;;;25.64;40.81;94194.41;4949571;28;9485;-60
2022/06/01 10:47:27;;;;;;;;;;;;;;;25.66;41.29;94193.88;4935741;28;7354;-60
2022/06/01 10:50:13;;;;;;;;;;;;;;;25.67;41.11;94195.34;4940902;28;7021;-59
2022/06/01 10:53:07;;;;;;;;;;;;;;;25.67;41.58;94193.34;4932570;28;7421;-60
2022/06/01 10:55:42;;;;;;;;;;;;;;;25.67;41.61;94187.84;4911904;28;6992;-60
2022/06/01 10:58:18;;;;;;;;;;;;;;;25.66;41.30;94197.38;4931296;28;8942;-60
2022/06/01 11:00:49;;;;;;;;;;;;;;;25.66;41.71;94194.63;4907678;29;9487;-60
2022/06/01 11:03:36;;;;;;;;;;;;;;;25.67;41.00;94190.59;4941148;28;7908;-60
2022/06/01 11:06:28;;;;;;;;;;;;;;;25.68;41.55;94197.63;5011719;28;9178;-60
2022/06/01 11:08:54;;;;;;;;;;;;;;;25.69;41.88;94201.09;5007812;28;9733;-61
2022/06/01 11:11:46;;;;;;;;;;;;;;;25.69;42.02;94207.34;4993912;28;7242;-60
2022/06/01 11:14:53;;;;;;;;;;;;;;;25.68;41.08;94199.63;4987024;28;7032;-60
2022/06/01 11:17:42;;;;;;;;;;;;;;;25.69;41.86;94207.34;5013318;28;9188;-60
2022/06/01 11:20:43;;;;;;;;;;;;;;;25.67;41.14;94212.63;5003791;28;7549;-60
2022/06/01 11:23:31;;;;;;;;;;;;;;;25.69;42.01;94214.88;5003704;28;8805;-60
2022/06/01 11:26:27;;;;;;;;;;;;;;;25.69;41.27;94210.13;4990204;28;9205;-60
2022/06/01 11:29:02;;;;;;;;;;;;;;;25.71;41.50;94204.84;4985551;28;7010;-60
2022/06/01 11:31:31;;;;;;;;;;;;;;;25.70;41.50;94211.63;5010978;28;7803;-60
2022/06/01 11:34:27;;;;;;;;;;;;;;;25.68;41.77;94208.63;5000889;28;7169;-61
2022/06/01 11:37:06;;;;;;;;;;;;;;;25.70;41.66;94210.88;4986042;28;9388;-60
2022/06/01 11:39:53;;;;;;;;;;;;;;;25.73;42.11;94221.59;4983282;28;7143;-59
2022/06/01 11:42:35;;;;;;;;;;;;;;;25.72;41.82;94214.59;4979891;28;9382;-60
2022/06/01 11:45:10;;;;;;;;;;;;;;;25.74;40.95;94216.84;5006537;28;7349;-60
2022/06/01 11:47:49;;;;;;;;;;;;;;;25.74;41.51;94225.84;4989942;28;7269;-60
2022/06/01 11:50:15;;;;;;;;;;;;;;;25.75;41.63;94232.84;5014837;28;8729;-60
2022/06/01 11:53:26;;;;;;;;;;;;;;;25.77;41.12;94224.81;5005551;28;7264;-60
2022/06/01 11:59:32;;;;;;;;;;;;;;;25.78;40.80;94206.28;4983281;28;9094;-60
2022/06/01 12:02:19;;;;;;;;;;;;;;;25.76;41.31;94206.03;5009626;28;9343;-60
2022/06/01 12:05:35;;;;;;;;;;;;;;;25.77;41.46;94204.78;5004677;28;8509;-60
2022/06/01 12:08:16;;;;;;;;;;;;;;;25.77;41.24;94200.03;5009038;28;9358;-60
2022/06/01 12:10:56;;;;;;;;;;;;;;;25.80;42.07;94185.22;5001385;28;7305;-60
2022/06/01 12:13:30;;;;;;;;;;;;;;;25.87;41.73;94181.13;5001870;28;8753;-60
2022/06/01 12:16:20;;;;;;;;;;;;;;;25.90;42.07;94174.59;4995126;28;7117;-61
2022/06/01 12:19:29;;;;;;;;;;;;;;;25.92;41.74;94175.56;5010654;28;7318;-61
2022/06/01 12:22:03;;;;;;;;;;;;;;;25.95;42.27;94182.03;4997780;28;6987;-61
2022/06/01 12:31:36;;;;;;;;;;;;;;;26.00;42.43;94173.72;5020765;28;7166;-61
2022/06/01 12:34:35;;;;;;;;;;;;;;;26.03;42.06;94174.69;5014447;28;7909;-60
2022/06/01 12:37:32;;;;;;;;;;;;;;;26.01;41.35;94175.19;5003289;28;8976;-60
2022/06/01 12:40:37;;;;;;;;;;;;;;;26.00;41.38;94176.47;5010742;28;7283;-60
2022/06/01 12:43:14;;;;;;;;;;;;;;;26.00;41.89;94173.72;5021141;28;7495;-60
2022/06/01 12:45:45;;;;;;;;;;;;;;;25.98;41.97;94172.75;4995954;28;7056;-60
2022/06/01 12:48:27;;;;;;;;;;;;;;;25.97;42.12;94180.25;5012860;28;9145;-60
2022/06/01 12:51:02;;;;;;;;;;;;;;;25.99;41.63;94171.50;5012340;28;8503;-60
2022/06/01 12:53:50;;;;;;;;;;;;;;;26.02;41.36;94186.97;4980516;28;9090;-61
2022/06/01 12:56:53;;;;;;;;;;;;;;;26.03;41.61;94191.97;4983351;28;7000;-60
2022/06/01 12:59:31;;;;;;;;;;;;;;;26.05;41.88;94194.97;4969570;28;9270;-60
2022/06/01 13:02:00;;;;;;;;;;;;;;;26.06;41.22;94199.19;4978921;28;9377;-61
2022/06/01 13:04:27;;;;;;;;;;;;;;;26.08;41.22;94201.44;4963722;28;7882;-61
2022/06/01 13:07:07;;;;;;;;;;;;;;;26.07;41.95;94200.72;4965819;28;9093;-60
2022/06/01 13:09:42;;;;;;;;;;;;;;;26.07;42.24;94200.72;4975328;28;7288;-61
2022/06/01 13:12:18;;;;;;;;;;;;;;;26.08;42.24;94204.97;4967094;28;9145;-61
2022/06/01 13:15:16;;;;;;;;;;;;;;;26.06;41.96;94210.22;4970626;28;7005;-61
2022/06/01 13:17:57;;;;;;;;;;;;;;;26.07;41.72;94203.47;4960695;28;9338;-62
2022/06/01 13:20:43;;;;;;;;;;;;;;;26.10;41.51;94207.19;4970872;28;9107;-61
2022/06/01 13:24:01;;;;;;;;;;;;;;;26.11;41.59;94206.69;4984389;28;7157;-60
2022/06/01 13:26:40;;;;;;;;;;;;;;;26.12;41.86;94208.19;4914796;29;7317;-60
2022/06/01 13:29:36;;;;;;;;;;;;;;;26.12;42.29;94213.69;4913023;29;7130;-60
2022/06/01 13:32:37;;;;;;;;;;;;;;;26.14;42.50;94215.94;4909969;29;9316;-60
2022/06/01 13:35:22;;;;;;;;;;;;;;;26.14;41.60;94215.94;4908465;29;7262;-60
2022/06/01 13:37:52;;;;;;;;;;;;;;;26.13;42.50;94214.44;4914867;29;6995;-60
2022/06/01 13:40:53;;;;;;;;;;;;;;;26.12;41.94;94216.44;4924719;29;9097;-61
2022/06/01 13:43:19;;;;;;;;;;;;;;;26.10;42.05;94215.47;4915236;29;6956;-60
2022/06/01 13:46:06;;;;;;;;;;;;;;;26.08;41.31;94207.72;4912170;29;9061;-60
2022/06/01 13:48:47;;;;;;;;;;;;;;;26.08;41.18;94221.50;4911725;29;9381;-60
2022/06/01 13:52:07;;;;;;;;;;;;;;;26.06;41.74;94215.00;4898909;29;7014;-60
2022/06/01 13:54:36;;;;;;;;;;;;;;;26.02;41.32;94223.56;4840885;29;7073;-60
2022/06/01 13:58:05;;;;;;;;;;;;;;;25.99;42.14;94234.88;4839749;29;9244;-61
2022/06/01 14:00:38;;;;;;;;;;;;;;;25.99;40.94;94237.63;4770051;30;7490;-60
2022/06/01 14:03:38;;;;;;;;;;;;;;;25.99;41.53;94241.13;4852227;29;7024;-60
2022/06/01 14:06:08;;;;;;;;;;;;;;;26.00;41.49;94239.13;4842722;29;9112;-60
2022/06/01 14:09:08;;;;;;;;;;;;;;;26.01;41.08;94244.09;4850192;29;7035;-60
2022/06/01 14:12:06;;;;;;;;;;;;;;;25.99;41.73;94238.34;4858044;29;9097;-60
2022/06/01 14:14:39;;;;;;;;;;;;;;;25.99;41.58;94249.38;4789202;29;7775;-60
2022/06/01 14:17:42;;;;;;;;;;;;;;;25.98;40.95;94247.91;4788465;29;7549;-61
2022/06/01 14:20:41;;;;;;;;;;;;;;;25.97;40.99;94246.41;4779080;29;8303;-60
2022/06/01 14:23:08;;;;;;;;;;;;;;;25.98;40.81;94241.63;4800865;29;8637;-60
2022/06/01 14:28:31;;;;;;;;;;;;;;;25.96;41.40;94227.63;4800839;29;7633;-60
2022/06/01 14:31:07;;;;;;;;;;;;;;;25.96;41.81;94222.13;4788920;29;7813;-60
2022/06/01 14:33:44;;;;;;;;;;;;;;;25.96;42.21;94216.63;4770933;30;7260;-60
2022/06/01 14:36:36;;;;;;;;;;;;;;;25.92;41.61;94211.41;4856386;29;7364;-60